createdAt,value
2022-08-25T00:00:22.448Z,18.95
2022-08-25T00:02:55.322Z,19.48
2022-08-25T00:05:32.406Z,19.52
2022-08-25T00:08:06.165Z,19.23
2022-08-25T00:10:38.335Z,17.35
2022-08-25T00:13:08.077Z,19.25
2022-08-25T00:15:36.590Z,21.42
2022-08-25T00:18:05.709Z,18.20
2022-08-25T00:20:48.904Z,18.63
2022-08-25T00:23:17.755Z,15.40
2022-08-25T00:25:45.692Z,19.08
2022-08-25T00:28:15.224Z,18.75
2022-08-25T00:30:44.421Z,19.45
2022-08-25T00:33:12.344Z,18.08
2022-08-25T00:35:42.469Z,17.50
2022-08-25T00:40:41.676Z,17.58
2022-08-25T00:43:09.850Z,18.58
2022-08-25T00:45:38.555Z,17.77
2022-08-25T00:48:07.075Z,21.55
2022-08-25T00:50:35.384Z,15.48
2022-08-25T00:53:05.778Z,17.60
2022-08-25T00:55:40.983Z,19.45
2022-08-25T00:58:16.124Z,24.23
2022-08-25T01:00:52.249Z,21.40
2022-08-25T01:03:23.808Z,21.80
2022-08-25T01:05:55.499Z,23.27
2022-08-25T01:08:29.347Z,20.83
2022-08-25T01:11:06.624Z,21.23
2022-08-25T01:13:47.607Z,20.40
2022-08-25T01:16:17.333Z,20.98
2022-08-25T01:18:52.579Z,22.80
2022-08-25T01:21:23.686Z,22.75
2022-08-25T01:23:53.005Z,18.80
2022-08-25T01:26:30.525Z,16.52
2022-08-25T01:29:22.023Z,18.65
2022-08-25T01:31:57.797Z,17.30
2022-08-25T01:34:30.949Z,17.40
2022-08-25T01:37:00.160Z,14.88
2022-08-25T01:39:31.249Z,14.77
2022-08-25T01:42:09.741Z,16.27
2022-08-25T01:44:43.611Z,15.48
2022-08-25T01:47:13.812Z,17.08
2022-08-25T01:49:41.898Z,17.92
2022-08-25T01:52:25.451Z,19.92
2022-08-25T01:54:53.411Z,49.25
2022-08-25T01:57:22.475Z,20.77
2022-08-25T01:59:50.576Z,21.95
2022-08-25T02:02:18.614Z,18.92
2022-08-25T02:04:46.432Z,22.48
2022-08-25T02:07:14.104Z,20.67
2022-08-25T02:09:42.015Z,23.73
2022-08-25T02:12:20.342Z,22.61
2022-08-25T02:14:48.940Z,20.45
2022-08-25T02:17:17.569Z,19.30
2022-08-25T02:19:45.345Z,19.00
2022-08-25T02:22:13.360Z,22.17
2022-08-25T02:24:44.390Z,23.42
2022-08-25T02:27:12.205Z,21.42
2022-08-25T02:29:40.456Z,23.70
2022-08-25T02:32:09.134Z,21.00
2022-08-25T02:34:41.422Z,25.17
2022-08-25T02:37:09.561Z,27.70
2022-08-25T02:39:37.527Z,20.70
2022-08-25T02:42:07.084Z,24.75
2022-08-25T02:44:35.688Z,26.65
2022-08-25T02:47:04.002Z,24.38
2022-08-25T02:49:33.212Z,28.33
2022-08-25T02:52:01.755Z,21.80
2022-08-25T02:54:30.023Z,22.08
2022-08-25T02:56:58.086Z,23.05
2022-08-25T02:59:28.475Z,23.00
2022-08-25T03:01:56.544Z,25.65
2022-08-25T03:04:24.876Z,20.98
2022-08-25T03:06:52.732Z,22.30
2022-08-25T03:09:21.133Z,23.70
2022-08-25T03:11:49.238Z,20.83
2022-08-25T03:14:17.602Z,25.17
2022-08-25T03:16:46.696Z,20.27
2022-08-25T03:19:15.393Z,20.70
2022-08-25T03:21:45.941Z,19.77
2022-08-25T03:24:14.500Z,20.30
2022-08-25T03:26:54.445Z,18.10
2022-08-25T03:29:33.915Z,17.73
2022-08-25T03:32:02.202Z,16.00
2022-08-25T03:34:30.817Z,18.05
2022-08-25T03:36:59.519Z,16.50
2022-08-25T03:39:27.924Z,16.90
2022-08-25T03:41:55.910Z,14.98
2022-08-25T03:44:23.865Z,15.10
2022-08-25T03:46:52.924Z,14.90
2022-08-25T03:49:23.961Z,15.52
2022-08-25T03:51:53.815Z,15.82
2022-08-25T03:54:26.059Z,15.48
2022-08-25T03:56:55.030Z,16.42
2022-08-25T03:59:22.707Z,14.43
2022-08-25T04:01:54.724Z,15.25
2022-08-25T04:04:23.836Z,16.33
2022-08-25T04:06:51.912Z,15.70
2022-08-25T04:09:19.913Z,15.05
2022-08-25T04:11:47.744Z,16.02
2022-08-25T04:14:23.283Z,18.02
2022-08-25T04:16:51.409Z,16.45
2022-08-25T04:19:20.626Z,14.82
2022-08-25T04:21:48.694Z,15.38
2022-08-25T04:24:16.823Z,18.95
2022-08-25T04:26:49.821Z,19.20
2022-08-25T04:29:23.733Z,24.45
2022-08-25T04:31:53.050Z,22.05
2022-08-25T04:34:29.664Z,16.30
2022-08-25T04:37:05.539Z,17.45
2022-08-25T04:39:34.114Z,17.85
2022-08-25T04:42:02.387Z,17.63
2022-08-25T04:44:31.958Z,14.45
2022-08-25T04:47:01.331Z,14.48
2022-08-25T04:49:29.630Z,41.08
2022-08-25T04:51:57.927Z,42.10
2022-08-25T04:54:25.836Z,24.05
2022-08-25T04:56:58.271Z,17.33
2022-08-25T04:59:30.021Z,14.70
2022-08-25T05:02:02.659Z,17.15
2022-08-25T05:04:32.827Z,15.63
2022-08-25T05:07:01.215Z,15.18
2022-08-25T05:09:29.266Z,16.08
2022-08-25T05:12:02.910Z,19.27
2022-08-25T05:14:32.627Z,16.20
2022-08-25T05:17:01.517Z,13.82
2022-08-25T05:19:29.269Z,14.63
2022-08-25T05:21:58.017Z,14.98
2022-08-25T05:24:26.820Z,12.68
2022-08-25T05:26:54.482Z,17.85
2022-08-25T05:29:22.394Z,24.98
2022-08-25T05:31:51.013Z,21.40
2022-08-25T05:34:20.324Z,20.70
2022-08-25T05:36:48.973Z,16.25
2022-08-25T05:39:16.775Z,30.70
2022-08-25T05:41:44.594Z,21.33
2022-08-25T05:44:12.971Z,17.98
2022-08-25T05:46:40.752Z,14.55
2022-08-25T05:49:08.523Z,17.90
2022-08-25T05:51:36.263Z,17.17
2022-08-25T05:54:04.391Z,20.30
2022-08-25T05:56:32.211Z,15.75
2022-08-25T05:58:59.968Z,17.67
2022-08-25T06:01:48.362Z,15.13
2022-08-25T06:04:18.040Z,15.52
2022-08-25T06:06:45.891Z,20.17
2022-08-25T06:09:15.337Z,17.08
2022-08-25T06:11:43.105Z,18.33
2022-08-25T06:14:11.650Z,16.33
2022-08-25T06:16:40.442Z,17.40
2022-08-25T06:19:10.518Z,15.98
2022-08-25T06:21:41.522Z,20.33
2022-08-25T06:24:15.151Z,15.25
2022-08-25T06:26:44.333Z,16.40
2022-08-25T06:29:16.327Z,16.95
2022-08-25T06:31:46.680Z,17.63
2022-08-25T06:34:14.475Z,19.27
2022-08-25T06:36:42.263Z,19.20
2022-08-25T06:39:11.339Z,15.50
2022-08-25T06:41:39.313Z,18.73
2022-08-25T06:44:07.152Z,19.33
2022-08-25T06:46:36.548Z,20.38
2022-08-25T06:49:06.890Z,15.90
2022-08-25T06:54:06.696Z,20.67
2022-08-25T06:56:34.857Z,19.63
2022-08-25T06:59:05.366Z,21.08
2022-08-25T07:01:34.265Z,18.83
2022-08-25T07:04:10.048Z,21.27
2022-08-25T07:06:40.455Z,17.90
2022-08-25T07:09:13.247Z,19.13
2022-08-25T07:11:42.884Z,22.50
2022-08-25T07:14:13.805Z,18.95
2022-08-25T07:16:47.198Z,19.42
2022-08-25T07:19:21.005Z,25.02
2022-08-25T07:21:52.969Z,19.92
2022-08-25T07:24:21.788Z,22.95
2022-08-25T07:26:49.913Z,24.90
2022-08-25T07:29:31.952Z,22.67
2022-08-25T07:40:16.156Z,22.45
2022-08-25T07:42:46.158Z,22.05
2022-08-25T07:45:17.396Z,24.08
2022-08-25T07:47:51.568Z,24.65
2022-08-25T07:50:20.951Z,21.55
2022-08-25T07:52:52.215Z,20.95
2022-08-25T07:55:30.536Z,20.27
2022-08-25T07:57:59.933Z,22.80
2022-08-25T08:00:30.202Z,23.60
2022-08-25T08:02:59.684Z,20.10
2022-08-25T08:05:28.890Z,23.30
2022-08-25T08:07:56.976Z,23.52
2022-08-25T08:10:47.791Z,21.85
2022-08-25T08:13:18.027Z,21.80
2022-08-25T08:15:47.549Z,25.10
2022-08-25T08:18:16.144Z,23.42
2022-08-25T08:20:49.255Z,20.70
2022-08-25T08:23:17.982Z,22.90
2022-08-25T08:25:45.842Z,17.92
2022-08-25T08:28:13.597Z,20.48
2022-08-25T08:30:53.545Z,25.92
2022-08-25T08:33:24.248Z,23.45
2022-08-25T08:36:07.872Z,21.50
2022-08-25T08:38:40.526Z,20.02
2022-08-25T08:42:13.168Z,20.25
2022-08-25T08:44:47.111Z,22.90
2022-08-25T08:47:39.167Z,21.10
2022-08-25T08:50:32.911Z,19.95
2022-08-25T08:53:16.430Z,22.15
2022-08-25T08:55:52.815Z,21.65
2022-08-25T08:58:46.032Z,19.17
2022-08-25T09:01:31.317Z,19.75
2022-08-25T09:04:29.210Z,17.80
2022-08-25T09:07:01.195Z,20.73
2022-08-25T09:09:35.460Z,21.58
2022-08-25T09:12:31.949Z,19.13
2022-08-25T09:15:57.522Z,20.63
2022-08-25T09:18:51.063Z,20.80
2022-08-25T09:21:37.239Z,60.47
2022-08-25T09:24:42.883Z,27.08
2022-08-25T09:27:58.464Z,23.77
2022-08-25T09:30:37.934Z,36.28
2022-08-25T09:33:07.190Z,23.85
2022-08-25T09:35:40.853Z,20.55
2022-08-25T09:38:12.344Z,20.15
2022-08-25T09:40:48.427Z,20.30
2022-08-25T09:43:43.479Z,17.17
2022-08-25T09:46:27.970Z,19.38
2022-08-25T09:49:11.033Z,17.00
2022-08-25T09:51:43.007Z,17.65
2022-08-25T09:54:13.839Z,20.10
2022-08-25T09:57:01.988Z,18.95
2022-08-25T09:59:35.648Z,16.67
2022-08-25T10:02:23.706Z,18.38
2022-08-25T10:04:52.364Z,20.50
2022-08-25T10:07:52.018Z,18.55
2022-08-25T10:10:38.282Z,17.92
2022-08-25T10:13:40.106Z,20.48
2022-08-25T10:16:24.867Z,22.05
2022-08-25T10:19:05.604Z,23.88
2022-08-25T10:21:36.438Z,23.63
2022-08-25T10:24:06.677Z,23.27
2022-08-25T10:29:53.275Z,24.08
2022-08-25T10:32:57.644Z,23.70
2022-08-25T10:35:45.584Z,23.30
2022-08-25T10:38:42.983Z,22.88
2022-08-25T10:42:06.737Z,22.98
2022-08-25T10:45:01.008Z,19.58
2022-08-25T10:48:00.463Z,21.95
2022-08-25T10:50:45.523Z,19.75
2022-08-25T10:53:21.553Z,22.88
2022-08-25T10:56:12.769Z,25.80
2022-08-25T10:59:13.061Z,25.95
2022-08-25T11:02:03.394Z,29.25
2022-08-25T11:04:55.906Z,23.23
2022-08-25T11:07:38.181Z,30.58
2022-08-25T11:10:35.772Z,25.30
2022-08-25T11:13:18.261Z,23.33
2022-08-25T11:16:16.495Z,24.45
2022-08-25T11:19:07.499Z,22.35
2022-08-25T11:21:54.118Z,22.85
2022-08-25T11:24:30.498Z,20.42
2022-08-25T11:26:59.933Z,22.33
2022-08-25T11:29:35.401Z,24.25
2022-08-25T11:32:05.262Z,23.88
2022-08-25T11:34:42.995Z,22.58
2022-08-25T11:37:28.072Z,24.30
2022-08-25T11:40:40.541Z,23.40
2022-08-25T11:43:47.223Z,24.15
2022-08-25T11:46:50.660Z,24.02
2022-08-25T11:49:54.587Z,21.73
2022-08-25T11:52:34.726Z,24.45
2022-08-25T11:55:13.589Z,24.83
2022-08-25T11:57:46.790Z,23.92
2022-08-25T12:00:42.682Z,22.52
2022-08-25T12:03:31.983Z,24.48
2022-08-25T12:06:28.398Z,19.67
2022-08-25T12:09:03.546Z,20.30
2022-08-25T12:11:54.721Z,20.20
2022-08-25T12:14:22.419Z,23.83
2022-08-25T12:16:57.062Z,22.00
2022-08-25T12:19:56.758Z,20.00
2022-08-25T12:22:24.423Z,22.50
2022-08-25T12:25:21.804Z,19.70
2022-08-25T12:28:09.463Z,21.80
2022-08-25T12:31:00.363Z,21.35
2022-08-25T12:33:49.562Z,22.23
2022-08-25T12:36:33.873Z,20.60
2022-08-25T12:39:29.051Z,21.45
2022-08-25T12:42:04.642Z,20.83
2022-08-25T12:44:48.048Z,22.95
2022-08-25T12:47:19.963Z,20.52
2022-08-25T12:49:51.977Z,22.42
2022-08-25T12:52:28.085Z,21.95
2022-08-25T12:55:03.660Z,21.48
2022-08-25T12:57:57.946Z,18.55
2022-08-25T13:00:51.199Z,21.77
2022-08-25T13:04:00.583Z,21.02
2022-08-25T13:07:01.979Z,23.95
2022-08-25T13:09:50.911Z,17.95
2022-08-25T13:12:37.932Z,20.35
2022-08-25T13:15:05.941Z,17.85
2022-08-25T13:17:35.955Z,18.67
2022-08-25T13:20:15.249Z,22.00
2022-08-25T13:22:55.361Z,20.67
2022-08-25T13:25:32.309Z,26.00
2022-08-25T13:30:37.371Z,17.65
2022-08-25T13:33:23.933Z,17.35
2022-08-25T13:36:16.473Z,17.05
2022-08-25T13:38:48.244Z,18.65
2022-08-25T13:41:28.764Z,20.92
2022-08-25T13:43:59.773Z,16.27
2022-08-25T13:46:29.159Z,18.05
2022-08-25T13:49:08.670Z,20.02
2022-08-25T13:51:39.743Z,16.90
2022-08-25T13:54:24.792Z,15.25
2022-08-25T13:56:52.932Z,20.65
2022-08-25T13:59:25.929Z,15.77
2022-08-25T14:01:55.762Z,15.00
2022-08-25T14:04:50.731Z,14.63
2022-08-25T14:07:33.668Z,16.35
2022-08-25T14:10:30.955Z,13.57
2022-08-25T14:13:34.955Z,13.82
2022-08-25T14:16:22.982Z,15.35
2022-08-25T14:18:58.877Z,14.63
2022-08-25T14:21:32.670Z,14.32
2022-08-25T14:24:04.154Z,14.95
2022-08-25T14:28:59.641Z,11.60
2022-08-25T14:31:36.261Z,15.38
2022-08-25T14:34:12.829Z,12.15
2022-08-25T14:36:41.243Z,12.20
2022-08-25T14:39:12.897Z,14.35
2022-08-25T14:41:47.540Z,13.48
2022-08-25T14:44:21.549Z,11.95
2022-08-25T14:46:57.693Z,14.70
2022-08-25T14:49:33.816Z,16.88
2022-08-25T14:52:16.492Z,10.75
2022-08-25T14:54:45.017Z,12.65
2022-08-25T14:57:14.406Z,12.70
2022-08-25T14:59:43.319Z,11.57
2022-08-25T15:02:19.927Z,10.73
2022-08-25T15:04:54.228Z,11.80
2022-08-25T15:07:40.559Z,14.27
2022-08-25T15:10:09.669Z,13.98
2022-08-25T15:12:47.724Z,9.68
2022-08-25T15:15:16.058Z,12.32
2022-08-25T15:17:46.723Z,12.27
2022-08-25T15:20:17.137Z,8.73
2022-08-25T15:22:45.615Z,13.20
2022-08-25T15:25:13.825Z,12.73
2022-08-25T15:27:41.644Z,9.20
2022-08-25T15:30:10.530Z,12.73
2022-08-25T15:32:41.251Z,12.13
2022-08-25T15:35:11.027Z,14.95
2022-08-25T15:37:42.970Z,12.85
2022-08-25T15:40:11.241Z,9.65
2022-08-25T15:42:42.799Z,12.52
2022-08-25T15:45:14.593Z,11.50
2022-08-25T15:47:42.576Z,12.32
2022-08-25T15:50:17.726Z,13.07
2022-08-25T15:52:47.559Z,15.13
2022-08-25T15:55:17.937Z,10.68
2022-08-25T15:57:49.714Z,12.60
2022-08-25T16:00:19.289Z,12.80
2022-08-25T16:02:49.900Z,11.95
2022-08-25T16:05:18.426Z,10.95
2022-08-25T16:07:51.501Z,10.18
2022-08-25T16:10:19.905Z,10.60
2022-08-25T16:12:48.017Z,17.75
2022-08-25T16:15:16.182Z,13.57
2022-08-25T16:17:46.964Z,12.32
2022-08-25T16:20:19.611Z,15.25
2022-08-25T16:22:48.111Z,13.55
2022-08-25T16:25:16.345Z,10.18
2022-08-25T16:27:45.581Z,12.35
2022-08-25T16:30:17.396Z,11.45
2022-08-25T16:32:46.685Z,15.38
2022-08-25T16:35:14.769Z,9.40
2022-08-25T16:37:42.674Z,12.95
2022-08-25T16:40:14.739Z,13.15
2022-08-25T16:42:42.897Z,10.23
2022-08-25T16:45:11.959Z,12.20
2022-08-25T16:47:39.714Z,9.48
2022-08-25T16:50:11.447Z,12.13
2022-08-25T16:52:59.426Z,11.15
2022-08-25T16:55:39.433Z,10.90
2022-08-25T16:58:13.437Z,10.82
2022-08-25T17:00:43.882Z,13.07
2022-08-25T17:03:13.159Z,13.23
2022-08-25T17:05:43.085Z,12.02
2022-08-25T17:08:30.742Z,13.30
2022-08-25T17:11:11.404Z,11.68
2022-08-25T17:13:45.707Z,13.38
2022-08-25T17:16:14.909Z,10.13
2022-08-25T17:18:44.837Z,11.00
2022-08-25T17:21:24.327Z,27.42
2022-08-25T17:23:55.852Z,37.88
2022-08-25T17:26:28.085Z,28.25
2022-08-25T17:28:59.427Z,19.02
2022-08-25T17:31:30.059Z,22.48
2022-08-25T17:33:58.791Z,26.40
2022-08-25T17:36:27.525Z,21.48
2022-08-25T17:38:57.027Z,35.28
2022-08-25T17:41:25.999Z,67.70
2022-08-25T17:43:53.772Z,62.33
2022-08-25T17:46:21.960Z,70.18
2022-08-25T17:48:49.942Z,68.65
2022-08-25T17:51:17.982Z,58.53
2022-08-25T17:53:46.939Z,50.33
2022-08-25T17:56:18.649Z,84.03
2022-08-25T17:58:47.372Z,118.60
2022-08-25T18:01:31.799Z,128.50
2022-08-25T18:03:59.739Z,79.18
2022-08-25T18:06:31.094Z,36.05
2022-08-25T18:09:01.560Z,27.08
2022-08-25T18:11:30.386Z,24.23
2022-08-25T18:13:58.662Z,33.47
2022-08-25T18:16:27.360Z,31.67
2022-08-25T18:18:55.936Z,27.60
2022-08-25T18:21:25.614Z,19.67
2022-08-25T18:23:59.177Z,17.13
2022-08-25T18:26:27.484Z,16.65
2022-08-25T18:28:55.877Z,17.25
2022-08-25T18:31:23.804Z,15.32
2022-08-25T18:33:52.265Z,15.43
2022-08-25T18:36:21.030Z,13.75
2022-08-25T18:39:08.978Z,13.15
2022-08-25T18:41:41.304Z,12.98
2022-08-25T18:44:11.004Z,12.32
2022-08-25T18:46:40.222Z,13.45
2022-08-25T18:49:09.076Z,16.67
2022-08-25T18:51:37.890Z,13.48
2022-08-25T18:54:06.543Z,16.67
2022-08-25T18:56:35.127Z,14.05
2022-08-25T18:59:04.375Z,13.82
2022-08-25T19:01:32.238Z,14.15
2022-08-25T19:04:00.512Z,16.80
2022-08-25T19:06:30.641Z,12.80
2022-08-25T19:09:00.083Z,12.98
2022-08-25T19:11:27.825Z,15.07
2022-08-25T19:16:40.141Z,12.73
2022-08-25T19:19:13.298Z,12.45
2022-08-25T19:21:42.633Z,14.50
2022-08-25T19:24:13.083Z,12.93
2022-08-25T19:26:41.668Z,12.98
2022-08-25T19:29:14.713Z,14.13
2022-08-25T19:31:45.532Z,12.55
2022-08-25T19:34:24.233Z,15.43
2022-08-25T19:36:58.592Z,12.52
2022-08-25T19:39:26.527Z,13.98
2022-08-25T19:41:54.390Z,18.33
2022-08-25T19:44:23.482Z,20.05
2022-08-25T19:46:53.738Z,14.38
2022-08-25T19:49:27.535Z,17.65
2022-08-25T19:52:03.110Z,16.80
2022-08-25T19:54:44.306Z,17.08
2022-08-25T19:57:27.868Z,18.80
2022-08-25T19:59:56.534Z,16.95
2022-08-25T20:02:28.203Z,15.23
2022-08-25T20:05:00.128Z,16.85
2022-08-25T20:07:31.561Z,14.23
2022-08-25T20:10:01.562Z,12.02
2022-08-25T20:12:29.379Z,13.30
2022-08-25T20:14:57.817Z,13.25
2022-08-25T20:17:26.205Z,18.42
2022-08-25T20:19:59.673Z,14.70
2022-08-25T20:22:31.698Z,15.10
2022-08-25T20:25:19.907Z,13.40
2022-08-25T20:27:52.349Z,16.33
2022-08-25T20:30:29.602Z,15.10
2022-08-25T20:32:58.609Z,16.52
2022-08-25T20:35:28.472Z,19.40
2022-08-25T20:37:59.424Z,17.85
2022-08-25T20:40:30.129Z,15.05
2022-08-25T20:43:03.112Z,15.15
2022-08-25T20:45:31.594Z,15.07
2022-08-25T20:48:00.077Z,12.57
2022-08-25T20:50:28.091Z,14.52
2022-08-25T20:52:58.794Z,13.02
2022-08-25T20:55:27.865Z,14.20
2022-08-25T20:57:56.294Z,14.27
2022-08-25T21:00:24.858Z,16.63
2022-08-25T21:02:53.458Z,17.00
2022-08-25T21:05:21.533Z,13.48
2022-08-25T21:07:49.425Z,14.07
2022-08-25T21:10:18.041Z,14.52
2022-08-25T21:12:45.977Z,17.38
2022-08-25T21:15:18.005Z,14.10
2022-08-25T21:17:54.342Z,12.75
2022-08-25T21:20:24.187Z,15.80
2022-08-25T21:22:53.445Z,19.15
2022-08-25T21:25:21.877Z,14.98
2022-08-25T21:27:49.581Z,19.52
2022-08-25T21:30:18.239Z,21.85
2022-08-25T21:32:52.903Z,18.30
2022-08-25T21:35:23.956Z,16.65
2022-08-25T21:37:53.828Z,13.55
2022-08-25T21:40:23.194Z,15.70
2022-08-25T21:42:52.499Z,17.02
2022-08-25T21:45:21.864Z,12.35
2022-08-25T21:47:50.120Z,13.93
2022-08-25T21:50:20.262Z,13.52
2022-08-25T21:52:48.371Z,10.65
2022-08-25T21:55:23.204Z,12.48
2022-08-25T21:57:51.521Z,11.75
2022-08-25T22:00:21.232Z,14.07
2022-08-25T22:02:50.211Z,15.55
2022-08-25T22:05:18.245Z,19.65
2022-08-25T22:07:45.970Z,15.90
2022-08-25T22:10:17.990Z,18.35
2022-08-25T22:12:48.330Z,12.73
2022-08-25T22:15:17.926Z,15.23
2022-08-25T22:17:48.127Z,14.55
2022-08-25T22:20:18.050Z,15.27
2022-08-25T22:22:46.204Z,13.90
2022-08-25T22:25:14.113Z,15.18
2022-08-25T22:27:42.398Z,12.82
2022-08-25T22:30:11.413Z,11.95
2022-08-25T22:32:39.422Z,13.05
2022-08-25T22:35:08.142Z,10.40
2022-08-25T22:37:37.428Z,14.98
2022-08-25T22:40:06.057Z,13.90
2022-08-25T22:42:33.859Z,17.30
2022-08-25T22:45:01.621Z,13.55
2022-08-25T22:47:29.459Z,13.73
2022-08-25T22:49:59.170Z,10.88
2022-08-25T22:52:31.963Z,14.60
2022-08-25T22:55:02.871Z,15.50
2022-08-25T22:57:30.753Z,12.95
2022-08-25T22:59:59.354Z,12.63
2022-08-25T23:02:30.256Z,14.50
2022-08-25T23:04:58.213Z,10.90
2022-08-25T23:07:29.509Z,12.98
2022-08-25T23:10:02.567Z,13.05
2022-08-25T23:12:30.750Z,13.13
2022-08-25T23:14:58.479Z,13.90
2022-08-25T23:17:29.229Z,12.15
2022-08-25T23:19:56.963Z,9.82
2022-08-25T23:22:24.665Z,10.95
2022-08-25T23:24:54.873Z,13.98
2022-08-25T23:27:22.679Z,14.77
2022-08-25T23:29:51.277Z,13.43
2022-08-25T23:32:19.063Z,15.15
2022-08-25T23:34:47.402Z,12.48
2022-08-25T23:37:16.299Z,15.55
2022-08-25T23:39:49.391Z,12.73
2022-08-25T23:42:19.800Z,13.15
2022-08-25T23:44:49.689Z,11.27
2022-08-25T23:47:18.796Z,11.25
2022-08-25T23:49:48.256Z,12.35
2022-08-25T23:52:17.525Z,11.00
2022-08-25T23:54:47.837Z,11.18
2022-08-25T23:57:15.786Z,11.45
2022-08-25T23:59:43.561Z,10.55
